Terminal Aerodrome Forecast
Issued by NWS

Home | Current Version | Previous Version | Text Only | Print | Product List | Glossary On
Versions: 1 2 3 4 5 6 7 8 9 10 11 12 13 14 15
980
FTUS43 KGRR 210530
TAFBTL
TAF
KBTL 210530Z 2106/2206 00000KT P6SM SKC
     FM210800 00000KT 4SM BR SCT200
      TEMPO 2108/2112 2SM BR
     FM211300 15005KT P6SM SKC
     FM220000 VRB03KT P6SM SCT120 BKN200=

USA.gov is the U.S. government's official web portal to all federal, state and local government web resources and services.